Wilmington, OH

2:58 AM EDT on October 25, 2014 (GMT -0400)
Country Manor | Change Station
CLOSE
Current Station
Personal Weather Station
Location: Wilmington, OH
Elevation: 1004 ft
Nearby Weather Stations

Elev 1004 ft 39.44 °N, 83.90 °W | Updated 5 seconds ago

Clear
Clear
49.2 °F
Feels Like 49 °F
N
0.0
Wind Variable Wind from WSW
Gusts 0.0 mph

Today
High -- | Low -- °F
--% Chance of Precip.
Yesterday
High -- | Low -- °F
Precip. -- in
7:55 AM 6:42 PM
New Moon, 2% visible
Pressure 30.04 in
Visibility 10.0 miles
Clouds Clear
Windchill 49 °F
Dew Point 42 °F
Humidity 76%
Rainfall 0.00 in
Snow Depth Not available.
UV 0 out of 12
Pollen 1.20 out of 12
Ozone Good
PM2.5 Moderate
Flu Activity Sporadic
METAR KILN 250654Z AUTO 21003KT 10SM CLR 08/03 A3002 RMK AO2 SLP172 T00780033

More Conditions Fewer Conditions

Pressure 30.04 in
Visibility 10.0 miles
Clouds Clear
Windchill 49 °F
Dew Point 42 °F
Humidity 76%
Rainfall 0.00 in
Snow Depth Not available.
UV 0 out of 12
Pollen 1.20 out of 12
Ozone Good
PM2.5 Moderate
Flu Activity Sporadic
METAR KILN 250654Z AUTO 21003KT 10SM CLR 08/03 A3002 RMK AO2 SLP172 T00780033

More Conditions Fewer Conditions

10-Day Weather Forecast

Almanac

Astronomy

Oct. 25, 2014 Rise Set
Actual Time 7:55 AM EDT 6:42 PM EDT
Civil Twilight 7:28 AM EDT 7:09 PM EDT
Nautical Twilight 6:56 AM EDT 7:41 PM EDT
Astronomical Twilight 6:25 AM EDT 8:12 PM EDT
Moon 9:33 AM EDT 8:05 PM EDT
Length of Visible Light 11h 41m
Length of Day
10h 46m
Tomorrow will be 2m 23s shorter.
New Moon, 2% of the Moon is Illuminated
Today
New Moon
Oct 30
First Quarter
Nov 6
Full
Nov 14
Last Quarter
Nov 22
New

Today's Extremes

State Highs State Lows

Community

WunderPhotos

Upload Photos

1,764,787 photos uploaded!

Nearby

Air Quality

  Air Quality AQ Index Pollutant
Yesterday Good
PM2.5
Yesterday Good
OZONE
Current Moderate
PM2.5
Current Good
OZONE
Saturday Moderate
PM2.5
Saturday Good
OZONE
Sunday Moderate
PM2.5
Sunday Good
OZONE
Monday Moderate
PM2.5
Monday Good
OZONE
Tuesday Good
PM2.5
Tuesday Good
OZONE

Snow Depth

Station Depth Elevation
No new snow has been reported.

Earthquake Activity

City Distance Mag. Time & Date
No recent earthquake activity has been reported nearby.
Minimum magnitude displayed is 2.5.

Coastal Water Temperatures

Place Temperature
No Stations Reporting

Nearby Weather Stations